Taunton 2W

41° 53' 56"N, 71° 08' 19"W, Elevation 50 ft.
Eastern Time

Hourly observations for the last 72 hours

Date Time Temperature (°F) Humi-
dity

(%)
Wind
(mph)
Pressure Rain (in) Sun
(W/m2)
UV ET
(in)
Air Dew 6 Hour 1 Hr 3 Hr 6 Hr Day
Alt
(in)
Sea
Level

(mb)
Max Min
22 22:00 26.8 23.5 87 Calm 30.39 1029.1 0.00 0 0.0 0.077
22 21:00 28.0 24.6 87 NNW 0 G 1 30.38 1028.8 0.00 0 0.0 0.077
22 20:00 28.4 24.2 84 Calm 30.36 1028.2 0.00 0 0.0 0.077
22 19:00 30.5 24.8 45.2 30.5 79 Calm 30.35 1027.9 0.00 0 0.0 0.077
22 18:00 34.3 25.2 69 Calm 30.32 1026.7 0.00 0 0.0 0.076
22 17:00 41.6 24.8 51 NNW 3 G 7 30.31 1026.3 0.00 30 0.0 0.073
22 16:00 44.0 25.6 48 WNW 4 G 10 30.28 1025.4 0.00 169 0.0 0.067
22 15:00 44.8 25.8 47 NNW 4 G 9 30.26 1024.9 0.00 322 1.1 0.058
22 14:00 44.7 26.2 48 NW 6 G 19 30.26 1024.6 0.00 501 1.9 0.046
22 13:00 44.6 25.1 44.6 35.3 46 NW 8 G 16 30.26 1024.9 0.00 517 2.6 0.034
22 12:00 43.3 25.4 49 NNW 5 G 17 30.29 1025.7 0.00 633 3.1 0.022
22 11:00 41.9 25.1 51 NW 9 G 13 30.28 1025.5 0.00 740 2.8 0.013
22 10:00 39.5 24.7 55 NW 7 G 13 30.27 1025.2 0.00 244 1.3 0.008
22 09:00 38.5 25.8 60 NW 5 G 9 30.25 1024.6 0.00 130 0.7 0.006
22 08:00 37.0 26.7 66 W 3 G 7 30.23 1023.6 0.00 83 0.0 0.005
22 07:00 35.4 26.6 35.5 30.6 70 WNW 4 G 5 30.20 1022.7 0.00 18 0.0 0.004
22 06:00 32.7 26.9 79 W 4 G 6 30.18 1022.2 0.00 0 0.0 0.003
22 05:00 35.0 27.2 73 W 2 G 8 30.15 1021.0 0.00 0 0.0 0.002
22 04:00 35.3 27.2 72 SW 2 G 3 30.14 1020.8 0.00 0 0.0 0.001
22 03:00 34.5 27.1 74 WSW 2 G 5 30.10 1019.4 0.00 0 0.0 0.000
22 02:00 34.5 27.1 74 SW 3 G 4 30.09 1019.0 0.00 0 0.0 0.000
22 01:00 33.1 27.0 33.1 27.8 78 SW 1 G 5 30.06 1018.0 0.00 0 0.0 0.000
22 00:00 32.6 26.8 79 WSW 1 G 2 30.02 1016.6 0.32 0 0.0 0.060
21 23:00 27.8 25.3 90 W 2 G 3 30.02 1016.6 0.32 0 0.0 0.060
21 22:00 28.6 25.5 88 W 1 G 3 30.01 1016.3 0.32 0 0.0 0.060
21 21:00 31.1 26.8 84 W 2 G 5 30.01 1016.2 0.32 0 0.0 0.060
21 20:00 29.9 27.1 89 NW 1 G 3 29.97 1014.8 0.32 0 0.0 0.060
21 19:00 32.3 28.0 48.1 32.2 84 NW 0 G 2 29.94 1013.8 0.32 0 0.0 0.060
21 18:00 40.4 29.9 66 WNW 2 G 4 29.90 1012.4 0.32 0 0.0 0.059
21 17:00 45.4 31.5 58 NW 6 G 11 29.86 1011.4 0.32 21 0.0 0.055
21 16:00 47.2 32.3 56 WNW 9 G 18 29.85 1011.0 0.32 200 0.0 0.047
21 15:00 47.0 33.8 60 NW 10 G 17 29.84 1010.7 0.32 378 1.2 0.036
21 14:00 47.0 36.2 66 WNW 8 G 21 29.83 1010.1 0.32 721 1.6 0.029
21 13:00 43.8 37.1 45.4 31.3 77 WNW 7 G 11 29.83 1010.2 0.32 172 1.1 0.019
21 12:00 40.2 36.4 86 WNW 9 G 16 29.84 1010.6 0.32 649 3.3 0.010
21 11:00 35.3 33.2 92 WNW 7 G 16 29.85 1010.8 0.32 378 2.4 0.006
21 10:00 33.7 31.9 93 W 5 G 7 29.84 1010.6 0.32 211 1.3 0.003
21 09:00 32.5 31.2 95 NW 4 G 10 29.84 1010.7 0.32 148 0.6 0.001
21 08:00 31.6 30.3 95 NNW 3 G 9 29.84 1010.7 0.32 58 0.0 0.000
21 07:00 31.9 30.6 32.8 25.9 95 NNW 4 G 9 29.82 1009.8 0.01 0.05 0.28 0.32 11 0.0 0.000
21 06:00 32.4 31.1 95 NW 4 G 8 29.84 1010.7 0.01 0.31 0 0.0 0.000
21 05:00 32.4 31.1 95 N 3 G 5 29.87 1011.5 0.03 0.30 0 0.0 0.000
21 04:00 32.3 30.8 94 ESE 3 G 8 29.89 1012.3 0.06 0.23 0.27 0 0.0 0.000
21 03:00 30.6 29.1 94 SE 6 G 11 29.96 1014.7 0.07 0.21 0 0.0 0.000
21 02:00 28.4 26.6 93 E 4 G 7 30.06 1017.9 0.10 0.14 0 0.0 0.000
21 01:00 25.9 23.9 27.0 24.4 92 E 2 G 4 30.14 1020.5 0.04 0.09 0.09 0.04 0 0.0 0.000
21 00:00 25.4 23.4 92 E 5 G 8 30.18 1022.1 0.03 0.05 0 0.0 0.030
20 23:00 25.2 22.9 91 E 3 G 7 30.24 1024.0 0.02 0.02 0 0.0 0.030
20 22:00 24.5 21.7 89 E 3 G 7 30.30 1026.0 0.00 0 0.0 0.030
20 21:00 25.4 20.1 80 SE 1 G 6 30.34 1027.4 0.00 0 0.0 0.029
20 20:00 26.7 17.6 68 ESE 2 G 4 30.36 1028.2 0.00 0 0.0 0.028
20 19:00 27.0 15.3 28.9 26.9 61 SSE 3 G 5 30.40 1029.4 0.00 0 0.0 0.027
20 18:00 27.2 14.4 58 SSE 3 G 5 30.43 1030.4 0.00 0 0.0 0.026
20 17:00 27.6 11.4 50 SSW 4 G 10 30.44 1031.0 0.00 14 0.0 0.024
20 16:00 28.4 9.8 45 SSW 5 G 8 30.46 1031.6 0.00 51 0.0 0.022
20 15:00 28.7 10.0 45 WSW 3 G 5 30.48 1032.1 0.00 90 0.0 0.020
20 14:00 28.5 8.3 42 SSW 3 G 5 30.49 1032.6 0.00 229 1.1 0.017
20 13:00 27.6 9.5 27.7 11.6 46 NNW 2 G 3 30.50 1032.8 0.00 236 1.3 0.014
20 12:00 26.5 7.5 44 WNW 0 G 4 30.53 1034.0 0.00 246 1.4 0.010
20 11:00 25.7 10.1 51 WNW 5 G 8 30.57 1035.1 0.00 232 1.2 0.006
20 10:00 23.9 10.5 56 NNW 2 G 8 30.58 1035.6 0.00 285 1.3 0.003
20 09:00 21.2 9.5 60 W 3 G 5 30.58 1035.4 0.00 213 0.7 0.001
20 08:00 16.4 10.7 78 W 0 G 1 30.59 1036.0 0.00 125 0.0 0.000
20 07:00 11.6 8.2 13.3 10.6 86 W 2 G 2 30.57 1035.2 0.00 30 0.0 0.000
20 06:00 11.0 7.4 85 W 1 G 2 30.59 1035.8 0.00 0 0.0 0.000
20 05:00 11.2 7.6 85 W 2 G 4 30.59 1036.0 0.00 0 0.0 0.000
20 04:00 11.6 8.0 85 WNW 1 G 2 30.56 1034.8 0.00 0 0.0 0.000
20 03:00 11.3 7.1 83 WNW 1 G 3 30.56 1034.8 0.00 0 0.0 0.000
20 02:00 11.8 7.6 83 WNW 2 G 4 30.57 1035.4 0.00 0 0.0 0.000
20 01:00 13.0 7.1 25.9 13.0 77 WNW 2 G 4 30.56 1034.8 0.00 0 0.0 0.000
20 00:00 16.8 8.1 68 WNW 2 G 4 30.55 1034.6 0.00 0 0.0 0.075
19 23:00 20.4 7.2 56 WNW 2 G 6 30.55 1034.5 0.00 0 0.0 0.074

Data generated by WxSolution Version 1.9.1.7, Build 2018.11.24.